sensor_id;sensor_type;location;lat;lon;timestamp;pressure;altitude;pressure_sealevel;temperature;humidity
47530;BME280;33272;51.922;7.730;2023-02-28T00:00:14;142068.59;;;-1.80;100.00
47530;BME280;33272;51.922;7.730;2023-02-28T00:02:42;142049.81;;;-1.88;100.00
47530;BME280;33272;51.922;7.730;2023-02-28T00:05:14;142038.50;;;-1.93;100.00
47530;BME280;33272;51.922;7.730;2023-02-28T00:07:42;142023.47;;;-1.99;100.00
47530;BME280;33272;51.922;7.730;2023-02-28T00:10:13;142012.22;;;-2.03;100.00
47530;BME280;33272;51.922;7.730;2023-02-28T00:12:41;141995.94;;;-2.10;100.00
47530;BME280;33272;51.922;7.730;2023-02-28T00:15:10;141978.41;;;-2.17;100.00
47530;BME280;33272;51.922;7.730;2023-02-28T00:17:38;141965.84;;;-2.22;100.00
47530;BME280;33272;51.922;7.730;2023-02-28T00:20:06;141949.56;;;-2.29;100.00
47530;BME280;33272;51.922;7.730;2023-02-28T00:22:36;141939.56;;;-2.33;100.00
47530;BME280;33272;51.922;7.730;2023-02-28T00:25:05;141927.03;;;-2.38;100.00
47530;BME280;33272;51.922;7.730;2023-02-28T00:27:38;141915.72;;;-2.43;100.00
47530;BME280;33272;51.922;7.730;2023-02-28T00:30:08;141905.72;;;-2.47;100.00
47530;BME280;33272;51.922;7.730;2023-02-28T00:32:36;141895.69;;;-2.51;100.00
47530;BME280;33272;51.922;7.730;2023-02-28T00:35:06;141886.94;;;-2.54;100.00
47530;BME280;33272;51.922;7.730;2023-02-28T00:37:34;141880.66;;;-2.57;100.00
47530;BME280;33272;51.922;7.730;2023-02-28T00:40:01;141870.66;;;-2.61;100.00
47530;BME280;33272;51.922;7.730;2023-02-28T00:42:30;141860.63;;;-2.65;100.00
47530;BME280;33272;51.922;7.730;2023-02-28T00:44:59;141854.38;;;-2.68;100.00
47530;BME280;33272;51.922;7.730;2023-02-28T00:47:26;141844.34;;;-2.72;100.00
47530;BME280;33272;51.922;7.730;2023-02-28T00:49:53;141836.81;;;-2.75;100.00
47530;BME280;33272;51.922;7.730;2023-02-28T00:52:20;141830.56;;;-2.77;100.00
47530;BME280;33272;51.922;7.730;2023-02-28T00:54:48;141824.31;;;-2.80;100.00
47530;BME280;33272;51.922;7.730;2023-02-28T00:57:15;141820.53;;;-2.82;100.00
47530;BME280;33272;51.922;7.730;2023-02-28T00:59:42;141809.31;;;-2.86;100.00
47530;BME280;33272;51.922;7.730;2023-02-28T01:02:10;141806.75;;;-2.87;100.00
47530;BME280;33272;51.922;7.730;2023-02-28T01:04:37;141808.06;;;-2.87;100.00
47530;BME280;33272;51.922;7.730;2023-02-28T01:07:04;141805.53;;;-2.88;100.00
47530;BME280;33272;51.922;7.730;2023-02-28T01:09:31;141805.53;;;-2.88;100.00
47530;BME280;33272;51.922;7.730;2023-02-28T01:11:58;141809.31;;;-2.86;100.00
47530;BME280;33272;51.922;7.730;2023-02-28T01:14:25;141806.75;;;-2.87;100.00
47530;BME280;33272;51.922;7.730;2023-02-28T01:16:52;141801.78;;;-2.89;100.00
47530;BME280;33272;51.922;7.730;2023-02-28T01:19:21;141801.78;;;-2.89;100.00
47530;BME280;33272;51.922;7.730;2023-02-28T01:21:48;141800.53;;;-2.90;100.00
47530;BME280;33272;51.922;7.730;2023-02-28T01:24:15;141800.53;;;-2.90;100.00
47530;BME280;33272;51.922;7.730;2023-02-28T01:26:42;141799.25;;;-2.90;100.00
47530;BME280;33272;51.922;7.730;2023-02-28T01:29:09;141795.50;;;-2.92;100.00
47530;BME280;33272;51.922;7.730;2023-02-28T01:31:36;141788.00;;;-2.95;100.00
47530;BME280;33272;51.922;7.730;2023-02-28T01:34:03;141784.22;;;-2.96;100.00
47530;BME280;33272;51.922;7.730;2023-02-28T01:36:32;141776.75;;;-2.99;100.00
47530;BME280;33272;51.922;7.730;2023-02-28T01:38:59;141764.22;;;-3.05;100.00
47530;BME280;33272;51.922;7.730;2023-02-28T01:41:30;141760.44;;;-3.06;100.00
47530;BME280;33272;51.922;7.730;2023-02-28T01:44:05;141750.44;;;-3.10;100.00
47530;BME280;33272;51.922;7.730;2023-02-28T01:46:35;141739.19;;;-3.15;100.00
47530;BME280;33272;51.922;7.730;2023-02-28T01:49:07;141734.16;;;-3.17;100.00
47530;BME280;33272;51.922;7.730;2023-02-28T01:51:40;141735.41;;;-3.16;100.00
47530;BME280;33272;51.922;7.730;2023-02-28T01:54:16;141727.91;;;-3.19;100.00
47530;BME280;33272;51.922;7.730;2023-02-28T01:56:46;141715.41;;;-3.24;100.00
47530;BME280;33272;51.922;7.730;2023-02-28T01:59:21;141704.13;;;-3.29;100.00
47530;BME280;33272;51.922;7.730;2023-02-28T02:01:49;141697.84;;;-3.32;100.00
47530;BME280;33272;51.922;7.730;2023-02-28T02:04:16;141689.09;;;-3.35;100.00
47530;BME280;33272;51.922;7.730;2023-02-28T02:06:46;141680.34;;;-3.39;100.00
47530;BME280;33272;51.922;7.730;2023-02-28T02:09:14;141675.31;;;-3.41;100.00
47530;BME280;33272;51.922;7.730;2023-02-28T02:11:43;141666.56;;;-3.44;100.00
47530;BME280;33272;51.922;7.730;2023-02-28T02:14:34;141665.34;;;-3.45;100.00
47530;BME280;33272;51.922;7.730;2023-02-28T02:17:14;141666.56;;;-3.44;100.00
47530;BME280;33272;51.922;7.730;2023-02-28T02:20:20;141660.31;;;-3.47;100.00
47530;BME280;33272;51.922;7.730;2023-02-28T02:23:45;141651.56;;;-3.51;100.00
47530;BME280;33272;51.922;7.730;2023-02-28T02:26:47;141642.81;;;-3.54;100.00
47530;BME280;33272;51.922;7.730;2023-02-28T02:29:59;141629.03;;;-3.60;100.00
47530;BME280;33272;51.922;7.730;2023-02-28T02:33:08;141614.00;;;-3.66;100.00
47530;BME280;33272;51.922;7.730;2023-02-28T02:35:43;141605.25;;;-3.69;100.00
47530;BME280;33272;51.922;7.730;2023-02-28T02:38:19;141594.03;;;-3.74;100.00
47530;BME280;33272;51.922;7.730;2023-02-28T02:40:58;141581.50;;;-3.79;100.00
47530;BME280;33272;51.922;7.730;2023-02-28T02:43:32;141573.97;;;-3.82;100.00
47530;BME280;33272;51.922;7.730;2023-02-28T02:46:06;141565.22;;;-3.86;100.00
47530;BME280;33272;51.922;7.730;2023-02-28T02:48:37;141558.97;;;-3.88;100.00
47530;BME280;33272;51.922;7.730;2023-02-28T02:51:12;141545.25;;;-3.94;100.00
47530;BME280;33272;51.922;7.730;2023-02-28T02:53:44;141538.97;;;-3.97;100.00
47530;BME280;33272;51.922;7.730;2023-02-28T02:56:15;141536.44;;;-3.98;100.00
47530;BME280;33272;51.922;7.730;2023-02-28T02:58:48;141530.25;;;-4.00;100.00
47530;BME280;33272;51.922;7.730;2023-02-28T03:01:20;141523.97;;;-4.03;100.00
47530;BME280;33272;51.922;7.730;2023-02-28T03:03:55;141523.97;;;-4.03;100.00
47530;BME280;33272;51.922;7.730;2023-02-28T03:06:25;141518.94;;;-4.05;100.00
47530;BME280;33272;51.922;7.730;2023-02-28T03:08:53;141518.94;;;-4.05;100.00
47530;BME280;33272;51.922;7.730;2023-02-28T03:11:20;141515.22;;;-4.06;100.00
47530;BME280;33272;51.922;7.730;2023-02-28T03:14:13;141506.44;;;-4.10;100.00
47530;BME280;33272;51.922;7.730;2023-02-28T03:17:09;141502.69;;;-4.11;100.00
47530;BME280;33272;51.922;7.730;2023-02-28T03:19:55;141498.97;;;-4.13;100.00
47530;BME280;33272;51.922;7.730;2023-02-28T03:22:50;141493.94;;;-4.15;100.00
47530;BME280;33272;51.922;7.730;2023-02-28T03:25:25;141497.69;;;-4.13;100.00
47530;BME280;33272;51.922;7.730;2023-02-28T03:28:02;141490.19;;;-4.16;100.00
47530;BME280;33272;51.922;7.730;2023-02-28T03:30:39;141486.44;;;-4.18;100.00
47530;BME280;33272;51.922;7.730;2023-02-28T03:33:11;141480.19;;;-4.21;100.00
47530;BME280;33272;51.922;7.730;2023-02-28T03:35:42;141473.91;;;-4.23;100.00
47530;BME280;33272;51.922;7.730;2023-02-28T03:38:17;141466.41;;;-4.26;100.00
47530;BME280;33272;51.922;7.730;2023-02-28T03:40:50;141458.91;;;-4.29;100.00
47530;BME280;33272;51.922;7.730;2023-02-28T03:43:23;141450.16;;;-4.33;100.00
47530;BME280;33272;51.922;7.730;2023-02-28T03:45:55;141448.94;;;-4.33;100.00
47530;BME280;33272;51.922;7.730;2023-02-28T03:48:29;141440.19;;;-4.37;100.00
47530;BME280;33272;51.922;7.730;2023-02-28T03:50:59;141433.91;;;-4.39;100.00
47530;BME280;33272;51.922;7.730;2023-02-28T03:53:32;141428.91;;;-4.42;100.00
47530;BME280;33272;51.922;7.730;2023-02-28T03:56:06;141431.44;;;-4.40;100.00
47530;BME280;33272;51.922;7.730;2023-02-28T03:58:41;141435.16;;;-4.39;100.00
47530;BME280;33272;51.922;7.730;2023-02-28T04:01:12;141440.19;;;-4.37;100.00
47530;BME280;33272;51.922;7.730;2023-02-28T04:03:42;141443.91;;;-4.35;100.00
47530;BME280;33272;51.922;7.730;2023-02-28T04:06:16;141445.19;;;-4.35;100.00
47530;BME280;33272;51.922;7.730;2023-02-28T04:08:46;141441.41;;;-4.36;100.00
47530;BME280;33272;51.922;7.730;2023-02-28T04:11:21;141430.19;;;-4.41;100.00
47530;BME280;33272;51.922;7.730;2023-02-28T04:13:49;141428.91;;;-4.42;100.00
47530;BME280;33272;51.922;7.730;2023-02-28T04:16:16;141423.94;;;-4.44;100.00
47530;BME280;33272;51.922;7.730;2023-02-28T04:18:43;141412.66;;;-4.48;100.00
47530;BME280;33272;51.922;7.730;2023-02-28T04:21:11;141405.16;;;-4.51;100.00
47530;BME280;33272;51.922;7.730;2023-02-28T04:23:38;141397.66;;;-4.54;100.00
47530;BME280;33272;51.922;7.730;2023-02-28T04:26:07;141392.69;;;-4.56;100.00
47530;BME280;33272;51.922;7.730;2023-02-28T04:28:34;141388.91;;;-4.58;100.00
47530;BME280;33272;51.922;7.730;2023-02-28T04:31:04;141381.41;;;-4.61;100.00
47530;BME280;33272;51.922;7.730;2023-02-28T04:33:32;141373.91;;;-4.64;100.00
47530;BME280;33272;51.922;7.730;2023-02-28T04:36:01;141368.94;;;-4.66;100.00
47530;BME280;33272;51.922;7.730;2023-02-28T04:38:29;141363.91;;;-4.68;100.00
47530;BME280;33272;51.922;7.730;2023-02-28T04:40:57;141355.19;;;-4.72;100.00
47530;BME280;33272;51.922;7.730;2023-02-28T04:43:26;141353.94;;;-4.72;100.00
47530;BME280;33272;51.922;7.730;2023-02-28T04:45:54;141345.19;;;-4.76;100.00
47530;BME280;33272;51.922;7.730;2023-02-28T04:48:22;141342.66;;;-4.77;100.00
47530;BME280;33272;51.922;7.730;2023-02-28T04:50:50;141337.69;;;-4.79;100.00
47530;BME280;33272;51.922;7.730;2023-02-28T04:53:17;141327.66;;;-4.83;100.00
47530;BME280;33272;51.922;7.730;2023-02-28T04:55:45;141322.69;;;-4.85;100.00
47530;BME280;33272;51.922;7.730;2023-02-28T04:58:13;141317.69;;;-4.87;100.00
47530;BME280;33272;51.922;7.730;2023-02-28T05:00:43;141312.66;;;-4.89;100.00
47530;BME280;33272;51.922;7.730;2023-02-28T05:03:10;141308.94;;;-4.91;100.00
47530;BME280;33272;51.922;7.730;2023-02-28T05:05:37;141303.91;;;-4.93;100.00
47530;BME280;33272;51.922;7.730;2023-02-28T05:08:04;141301.44;;;-4.94;100.00
47530;BME280;33272;51.922;7.730;2023-02-28T05:10:32;141297.66;;;-4.95;100.00
47530;BME280;33272;51.922;7.730;2023-02-28T05:12:58;141288.91;;;-4.99;100.00
47530;BME280;33272;51.922;7.730;2023-02-28T05:15:25;141280.19;;;-5.02;100.00
47530;BME280;33272;51.922;7.730;2023-02-28T05:17:54;141272.69;;;-5.05;100.00
47530;BME280;33272;51.922;7.730;2023-02-28T05:20:21;141267.72;;;-5.07;100.00
47530;BME280;33272;51.922;7.730;2023-02-28T05:22:49;141265.19;;;-5.08;100.00
47530;BME280;33272;51.922;7.730;2023-02-28T05:25:18;141267.72;;;-5.07;100.00
47530;BME280;33272;51.922;7.730;2023-02-28T05:27:45;141267.72;;;-5.07;100.00
47530;BME280;33272;51.922;7.730;2023-02-28T05:30:13;141267.72;;;-5.07;100.00
47530;BME280;33272;51.922;7.730;2023-02-28T05:32:41;141266.44;;;-5.08;100.00
47530;BME280;33272;51.922;7.730;2023-02-28T05:35:11;141266.44;;;-5.08;100.00
47530;BME280;33272;51.922;7.730;2023-02-28T05:37:39;141263.94;;;-5.09;100.00
47530;BME280;33272;51.922;7.730;2023-02-28T05:40:08;141260.22;;;-5.10;100.00
47530;BME280;33272;51.922;7.730;2023-02-28T05:42:35;141255.19;;;-5.13;100.00
47530;BME280;33272;51.922;7.730;2023-02-28T05:45:04;141252.72;;;-5.14;100.00
47530;BME280;33272;51.922;7.730;2023-02-28T05:47:32;141250.19;;;-5.15;100.00
47530;BME280;33272;51.922;7.730;2023-02-28T05:49:59;141247.72;;;-5.16;100.00
47530;BME280;33272;51.922;7.730;2023-02-28T05:52:28;141245.22;;;-5.17;100.00
47530;BME280;33272;51.922;7.730;2023-02-28T05:54:56;141238.97;;;-5.19;100.00
47530;BME280;33272;51.922;7.730;2023-02-28T05:57:23;141233.94;;;-5.21;100.00
47530;BME280;33272;51.922;7.730;2023-02-28T05:59:50;141231.47;;;-5.22;100.00
47530;BME280;33272;51.922;7.730;2023-02-28T06:02:18;141232.72;;;-5.22;100.00
47530;BME280;33272;51.922;7.730;2023-02-28T06:04:45;141230.22;;;-5.23;100.00
47530;BME280;33272;51.922;7.730;2023-02-28T06:07:12;141231.47;;;-5.22;100.00
47530;BME280;33272;51.922;7.730;2023-02-28T06:09:41;141231.47;;;-5.22;100.00
47530;BME280;33272;51.922;7.730;2023-02-28T06:12:08;141229.00;;;-5.23;100.00
47530;BME280;33272;51.922;7.730;2023-02-28T06:14:36;141230.22;;;-5.23;100.00
47530;BME280;33272;51.922;7.730;2023-02-28T06:17:04;141229.00;;;-5.23;100.00
47530;BME280;33272;51.922;7.730;2023-02-28T06:19:31;141230.22;;;-5.23;100.00
47530;BME280;33272;51.922;7.730;2023-02-28T06:21:59;141232.72;;;-5.22;100.00
47530;BME280;33272;51.922;7.730;2023-02-28T06:24:26;141233.94;;;-5.21;100.00
47530;BME280;33272;51.922;7.730;2023-02-28T06:26:56;141237.72;;;-5.20;100.00
47530;BME280;33272;51.922;7.730;2023-02-28T06:29:24;141235.19;;;-5.21;100.00
47530;BME280;33272;51.922;7.730;2023-02-28T06:31:51;141240.22;;;-5.19;100.00
47530;BME280;33272;51.922;7.730;2023-02-28T06:34:18;141241.44;;;-5.18;100.00
47530;BME280;33272;51.922;7.730;2023-02-28T06:36:45;141243.94;;;-5.17;100.00
47530;BME280;33272;51.922;7.730;2023-02-28T06:39:12;141245.22;;;-5.17;100.00
47530;BME280;33272;51.922;7.730;2023-02-28T06:41:39;141250.19;;;-5.15;100.00
47530;BME280;33272;51.922;7.730;2023-02-28T06:44:12;141253.97;;;-5.13;100.00
47530;BME280;33272;51.922;7.730;2023-02-28T06:46:40;141258.94;;;-5.11;100.00
47530;BME280;33272;51.922;7.730;2023-02-28T06:49:07;141271.44;;;-5.06;100.00
47530;BME280;33272;51.922;7.730;2023-02-28T06:51:36;141282.66;;;-5.01;100.00
47530;BME280;33272;51.922;7.730;2023-02-28T06:54:04;141293.94;;;-4.97;100.00
47530;BME280;33272;51.922;7.730;2023-02-28T06:56:35;141312.66;;;-4.89;100.00
47530;BME280;33272;51.922;7.730;2023-02-28T06:59:02;141326.41;;;-4.83;100.00
47530;BME280;33272;51.922;7.730;2023-02-28T07:01:31;141345.19;;;-4.76;100.00
47530;BME280;33272;51.922;7.730;2023-02-28T07:04:00;141365.16;;;-4.68;100.00
47530;BME280;33272;51.922;7.730;2023-02-28T07:06:27;141381.41;;;-4.61;100.00
47530;BME280;33272;51.922;7.730;2023-02-28T07:08:54;141398.94;;;-4.54;100.00
47530;BME280;33272;51.922;7.730;2023-02-28T07:11:24;141431.44;;;-4.40;100.00
47530;BME280;33272;51.922;7.730;2023-02-28T07:13:52;141475.16;;;-4.23;100.00
47530;BME280;33272;51.922;7.730;2023-02-28T07:16:19;141517.72;;;-4.05;100.00
47530;BME280;33272;51.922;7.730;2023-02-28T07:18:48;141561.50;;;-3.87;100.00
47530;BME280;33272;51.922;7.730;2023-02-28T07:21:15;141601.53;;;-3.71;100.00
47530;BME280;33272;51.922;7.730;2023-02-28T07:23:43;141634.03;;;-3.58;100.00
47530;BME280;33272;51.922;7.730;2023-02-28T07:26:13;141666.56;;;-3.44;100.00
47530;BME280;33272;51.922;7.730;2023-02-28T07:28:41;141695.38;;;-3.33;100.00
47530;BME280;33272;51.922;7.730;2023-02-28T07:31:08;141726.66;;;-3.20;100.00
47530;BME280;33272;51.922;7.730;2023-02-28T07:33:37;141750.44;;;-3.10;100.00
47530;BME280;33272;51.922;7.730;2023-02-28T07:36:09;141778.00;;;-2.99;100.00
47530;BME280;33272;51.922;7.730;2023-02-28T07:38:39;141805.53;;;-2.88;100.00
47530;BME280;33272;51.922;7.730;2023-02-28T07:41:06;141833.09;;;-2.76;100.00
47530;BME280;33272;51.922;7.730;2023-02-28T07:43:34;141859.38;;;-2.66;100.00
47530;BME280;33272;51.922;7.730;2023-02-28T07:46:03;141888.19;;;-2.54;100.00
47530;BME280;33272;51.922;7.730;2023-02-28T07:48:31;141917.00;;;-2.42;100.00
47530;BME280;33272;51.922;7.730;2023-02-28T07:50:59;141943.31;;;-2.31;100.00
47530;BME280;33272;51.922;7.730;2023-02-28T07:53:28;141967.09;;;-2.22;100.00
47530;BME280;33272;51.922;7.730;2023-02-28T07:55:56;142005.94;;;-2.06;100.00
47530;BME280;33272;51.922;7.730;2023-02-28T07:58:24;142039.81;;;-1.92;100.00
47530;BME280;33272;51.922;7.730;2023-02-28T08:00:52;142081.16;;;-1.75;100.00
47530;BME280;33272;51.922;7.730;2023-02-28T08:03:20;142120.00;;;-1.59;100.00
47530;BME280;33272;51.922;7.730;2023-02-28T08:05:48;142155.09;;;-1.45;100.00
47530;BME280;33272;51.922;7.730;2023-02-28T08:08:16;142187.72;;;-1.32;100.00
47530;BME280;33272;51.922;7.730;2023-02-28T08:10:44;142215.28;;;-1.21;100.00
47530;BME280;33272;51.922;7.730;2023-02-28T08:13:11;142249.19;;;-1.07;100.00
47530;BME280;33272;51.922;7.730;2023-02-28T08:15:40;142286.78;;;-0.91;100.00
47530;BME280;33272;51.922;7.730;2023-02-28T08:18:08;142315.63;;;-0.80;100.00
47530;BME280;33272;51.922;7.730;2023-02-28T08:20:35;142347.00;;;-0.67;100.00
47530;BME280;33272;51.922;7.730;2023-02-28T08:23:02;142382.16;;;-0.53;100.00
47530;BME280;33272;51.922;7.730;2023-02-28T08:25:29;142423.56;;;-0.36;100.00
47530;BME280;33272;51.922;7.730;2023-02-28T08:27:57;142459.97;;;-0.21;100.00
47530;BME280;33272;51.922;7.730;2023-02-28T08:30:24;142498.91;;;-0.05;100.00
47530;BME280;33272;51.922;7.730;2023-02-28T08:32:51;142537.81;;;0.11;100.00
47530;BME280;33272;51.922;7.730;2023-02-28T08:35:18;142569.22;;;0.23;100.00
47530;BME280;33272;51.922;7.730;2023-02-28T08:37:47;142608.16;;;0.39;100.00
47530;BME280;33272;51.922;7.730;2023-02-28T08:40:15;142640.78;;;0.53;100.00
47530;BME280;33272;51.922;7.730;2023-02-28T08:42:43;142679.72;;;0.68;100.00
47530;BME280;33272;51.922;7.730;2023-02-28T08:45:12;142711.16;;;0.81;100.00
47530;BME280;33272;51.922;7.730;2023-02-28T08:47:40;142746.34;;;0.96;100.00
47530;BME280;33272;51.922;7.730;2023-02-28T08:50:09;142786.56;;;1.12;100.00
47530;BME280;33272;51.922;7.730;2023-02-28T08:52:36;142825.53;;;1.28;100.00
47530;BME280;33272;51.922;7.730;2023-02-28T08:55:04;142862.00;;;1.43;100.00
47530;BME280;33272;51.922;7.730;2023-02-28T08:57:32;142898.41;;;1.57;100.00
47530;BME280;33272;51.922;7.730;2023-02-28T08:59:59;142936.16;;;1.73;100.00
47530;BME280;33272;51.922;7.730;2023-02-28T09:02:28;142982.69;;;1.92;100.00
47530;BME280;33272;51.922;7.730;2023-02-28T09:04:55;143029.22;;;2.11;100.00
47530;BME280;33272;51.922;7.730;2023-02-28T09:07:22;143078.31;;;2.30;100.00
47530;BME280;33272;51.922;7.730;2023-02-28T09:09:49;143122.34;;;2.48;100.00
47530;BME280;33272;51.922;7.730;2023-02-28T09:12:25;143165.16;;;2.66;97.16
47530;BME280;33272;51.922;7.730;2023-02-28T09:14:53;143197.88;;;2.79;94.23
47530;BME280;33272;51.922;7.730;2023-02-28T09:17:20;143231.84;;;2.93;93.44
47530;BME280;33272;51.922;7.730;2023-02-28T09:19:49;143265.88;;;3.07;93.96
47530;BME280;33272;51.922;7.730;2023-02-28T09:22:16;143296.09;;;3.19;92.47
47530;BME280;33272;51.922;7.730;2023-02-28T09:24:43;143325.03;;;3.31;93.09
47530;BME280;33272;51.922;7.730;2023-02-28T09:27:11;143351.50;;;3.41;89.35
47530;BME280;33272;51.922;7.730;2023-02-28T09:29:38;143381.72;;;3.54;88.66
47530;BME280;33272;51.922;7.730;2023-02-28T09:32:05;143409.41;;;3.65;88.31
47530;BME280;33272;51.922;7.730;2023-02-28T09:34:32;143439.66;;;3.77;89.25
47530;BME280;33272;51.922;7.730;2023-02-28T09:37:01;143462.34;;;3.86;87.84
47530;BME280;33272;51.922;7.730;2023-02-28T09:39:28;143477.47;;;3.92;85.62
47530;BME280;33272;51.922;7.730;2023-02-28T09:41:56;143493.84;;;3.99;84.07
47530;BME280;33272;51.922;7.730;2023-02-28T09:44:30;143512.78;;;4.07;83.39
47530;BME280;33272;51.922;7.730;2023-02-28T09:47:01;143521.59;;;4.10;81.38
47530;BME280;33272;51.922;7.730;2023-02-28T09:49:38;143535.41;;;4.16;79.89
47530;BME280;33272;51.922;7.730;2023-02-28T09:52:12;143559.41;;;4.26;80.01
47530;BME280;33272;51.922;7.730;2023-02-28T09:54:40;143578.28;;;4.33;78.66
47530;BME280;33272;51.922;7.730;2023-02-28T09:57:15;143595.94;;;4.40;76.89
47530;BME280;33272;51.922;7.730;2023-02-28T10:00:01;143599.75;;;4.42;71.55
47530;BME280;33272;51.922;7.730;2023-02-28T10:03:02;143618.63;;;4.50;73.90
47530;BME280;33272;51.922;7.730;2023-02-28T10:05:36;143643.84;;;4.60;74.44
47530;BME280;33272;51.922;7.730;2023-02-28T10:08:13;143671.59;;;4.71;72.89
47530;BME280;33272;51.922;7.730;2023-02-28T10:10:43;143703.13;;;4.84;73.51
47530;BME280;33272;51.922;7.730;2023-02-28T10:13:22;143715.75;;;4.89;71.55
47530;BME280;33272;51.922;7.730;2023-02-28T10:15:54;143717.00;;;4.90;71.71
47530;BME280;33272;51.922;7.730;2023-02-28T10:18:27;143715.75;;;4.89;70.39
47530;BME280;33272;51.922;7.730;2023-02-28T10:20:57;143703.13;;;4.84;68.85
47530;BME280;33272;51.922;7.730;2023-02-28T10:23:32;143711.94;;;4.87;68.07
47530;BME280;33272;51.922;7.730;2023-02-28T10:26:08;143725.81;;;4.93;67.04
47530;BME280;33272;51.922;7.730;2023-02-28T10:28:37;143728.31;;;4.94;68.42
47530;BME280;33272;51.922;7.730;2023-02-28T10:31:04;143743.47;;;5.00;68.12
47530;BME280;33272;51.922;7.730;2023-02-28T10:33:34;143776.25;;;5.14;68.65
47530;BME280;33272;51.922;7.730;2023-02-28T10:36:04;143801.53;;;5.24;68.49
47530;BME280;33272;51.922;7.730;2023-02-28T10:38:36;143834.31;;;5.37;67.36
47530;BME280;33272;51.922;7.730;2023-02-28T10:41:07;143855.78;;;5.46;67.16
47530;BME280;33272;51.922;7.730;2023-02-28T10:43:35;143853.22;;;5.45;67.05
47530;BME280;33272;51.922;7.730;2023-02-28T10:46:05;143830.50;;;5.35;66.29
47530;BME280;33272;51.922;7.730;2023-02-28T10:48:40;143824.22;;;5.33;66.12
47530;BME280;33272;51.922;7.730;2023-02-28T10:51:11;143791.41;;;5.20;65.07
47530;BME280;33272;51.922;7.730;2023-02-28T10:53:48;143766.19;;;5.09;65.77
47530;BME280;33272;51.922;7.730;2023-02-28T10:56:18;143746.03;;;5.01;65.24
47530;BME280;33272;51.922;7.730;2023-02-28T10:58:56;143728.31;;;4.94;64.68
47530;BME280;33272;51.922;7.730;2023-02-28T11:01:37;143706.94;;;4.85;65.34
47530;BME280;33272;51.922;7.730;2023-02-28T11:04:18;143709.44;;;4.86;64.84
47530;BME280;33272;51.922;7.730;2023-02-28T11:06:47;143700.59;;;4.83;65.05
47530;BME280;33272;51.922;7.730;2023-02-28T11:09:24;143691.78;;;4.79;64.05
47530;BME280;33272;51.922;7.730;2023-02-28T11:11:54;143704.38;;;4.84;65.94
47530;BME280;33272;51.922;7.730;2023-02-28T11:14:24;143718.25;;;4.90;65.79
47530;BME280;33272;51.922;7.730;2023-02-28T11:16:53;143742.22;;;5.00;65.72
47530;BME280;33272;51.922;7.730;2023-02-28T11:19:24;143782.56;;;5.16;65.18
47530;BME280;33272;51.922;7.730;2023-02-28T11:21:55;143797.72;;;5.22;63.67
47530;BME280;33272;51.922;7.730;2023-02-28T11:24:27;143796.47;;;5.22;64.34
47530;BME280;33272;51.922;7.730;2023-02-28T11:26:56;143802.78;;;5.24;63.99
47530;BME280;33272;51.922;7.730;2023-02-28T11:29:25;143812.84;;;5.28;63.65
47530;BME280;33272;51.922;7.730;2023-02-28T11:32:21;143805.28;;;5.25;59.11
47530;BME280;33272;51.922;7.730;2023-02-28T11:35:03;143820.41;;;5.31;62.19
47530;BME280;33272;51.922;7.730;2023-02-28T11:37:32;143855.78;;;5.46;63.77
47530;BME280;33272;51.922;7.730;2023-02-28T11:40:01;143882.25;;;5.56;63.35
47530;BME280;33272;51.922;7.730;2023-02-28T11:42:43;143915.06;;;5.70;62.83
47530;BME280;33272;51.922;7.730;2023-02-28T11:45:29;143934.00;;;5.77;62.34
47530;BME280;33272;51.922;7.730;2023-02-28T11:48:09;143949.16;;;5.84;60.05
47530;BME280;33272;51.922;7.730;2023-02-28T11:50:50;143939.03;;;5.79;60.62
47530;BME280;33272;51.922;7.730;2023-02-28T11:53:31;143941.59;;;5.80;62.45
47530;BME280;33272;51.922;7.730;2023-02-28T11:56:08;143944.09;;;5.81;60.81
47530;BME280;33272;51.922;7.730;2023-02-28T11:58:49;143946.59;;;5.82;61.24
47530;BME280;33272;51.922;7.730;2023-02-28T12:01:32;143973.19;;;5.93;60.37
47530;BME280;33272;51.922;7.730;2023-02-28T12:04:17;143990.84;;;6.00;62.71
47530;BME280;33272;51.922;7.730;2023-02-28T12:06:54;144012.34;;;6.09;63.39
47530;BME280;33272;51.922;7.730;2023-02-28T12:09:44;144006.00;;;6.07;59.98
47530;BME280;33272;51.922;7.730;2023-02-28T12:12:26;144023.66;;;6.14;61.29
47530;BME280;33272;51.922;7.730;2023-02-28T12:15:22;144011.06;;;6.09;62.54
47530;BME280;33272;51.922;7.730;2023-02-28T12:18:05;144002.19;;;6.05;61.72
47530;BME280;33272;51.922;7.730;2023-02-28T12:20:41;144016.09;;;6.11;63.26
47530;BME280;33272;51.922;7.730;2023-02-28T12:23:40;144027.47;;;6.15;62.74
47530;BME280;33272;51.922;7.730;2023-02-28T12:26:18;144053.97;;;6.26;62.89
47530;BME280;33272;51.922;7.730;2023-02-28T12:28:53;144075.47;;;6.35;62.99
47530;BME280;33272;51.922;7.730;2023-02-28T12:31:24;144105.78;;;6.47;63.82
47530;BME280;33272;51.922;7.730;2023-02-28T12:33:56;144109.53;;;6.48;63.36
47530;BME280;33272;51.922;7.730;2023-02-28T12:36:26;144095.63;;;6.43;63.82
47530;BME280;33272;51.922;7.730;2023-02-28T12:39:00;144062.81;;;6.30;63.34
47530;BME280;33272;51.922;7.730;2023-02-28T12:41:34;144009.78;;;6.08;62.92
47530;BME280;33272;51.922;7.730;2023-02-28T12:44:09;143951.69;;;5.85;62.46
47530;BME280;33272;51.922;7.730;2023-02-28T12:46:42;143926.44;;;5.74;63.99
47530;BME280;33272;51.922;7.730;2023-02-28T12:49:15;143891.09;;;5.60;63.91
47530;BME280;33272;51.922;7.730;2023-02-28T12:51:44;143887.31;;;5.58;64.55
47530;BME280;33272;51.922;7.730;2023-02-28T12:54:21;143862.03;;;5.48;64.57
47530;BME280;33272;51.922;7.730;2023-02-28T12:56:58;143835.56;;;5.38;63.16
47530;BME280;33272;51.922;7.730;2023-02-28T12:59:37;143811.59;;;5.28;63.75
47530;BME280;33272;51.922;7.730;2023-02-28T13:02:50;143797.72;;;5.22;63.58
47530;BME280;33272;51.922;7.730;2023-02-28T13:05:50;143801.53;;;5.24;61.91
47530;BME280;33272;51.922;7.730;2023-02-28T13:09:02;143850.72;;;5.44;63.36